Time;durP1;ratioP1;P1;durP2;ratioP2;P2;SDS_P1;SDS_P2;PMS_P1;PMS_P2;Temp;Humidity;BMP_temperature;BMP_pressure;BME280_temperature;BME280_humidity;BME280_pressure;Samples;Min_cycle;Max_cycle;Signal;HPM_P1;HPM_P2
2022/01/31 00:01:00;;;;;;;;;10.00;9.00;;;;;11.12;50.57;101763.50;2081002;28;47477;-57
2022/01/31 00:02:00;;;;;;;;;9.00;9.00;;;;;11.12;50.85;101760.84;2080346;28;47991;-61
2022/01/31 00:03:02;;;;;;;;;10.00;10.00;;;;;11.12;50.76;101764.38;2071956;28;48024;-60
2022/01/31 00:04:02;;;;;;;;;7.75;7.00;;;;;11.13;50.55;101757.31;2072285;28;47564;-59
2022/01/31 00:05:04;;;;;;;;;10.33;8.00;;;;;11.13;50.55;101749.34;2079914;28;47899;-58
2022/01/31 00:06:04;;;;;;;;;10.50;8.25;;;;;11.12;50.52;101745.78;2077279;28;45508;-59
2022/01/31 00:07:05;;;;;;;;;8.00;8.00;;;;;11.11;50.55;101740.50;2077976;28;47439;-59
2022/01/31 00:08:06;;;;;;;;;6.50;6.50;;;;;11.09;50.48;101745.81;2080013;28;47813;-59
2022/01/31 00:09:12;;;;;;;;;7.00;5.33;;;;;11.08;50.57;101741.41;2080193;28;47446;-59
2022/01/31 00:10:14;;;;;;;;;7.25;6.75;;;;;11.07;50.68;101744.06;2079456;28;47560;-59
2022/01/31 00:11:15;;;;;;;;;8.00;8.00;;;;;11.06;50.47;101748.50;2079402;28;47538;-60
2022/01/31 00:12:19;;;;;;;;;7.00;6.25;;;;;11.06;50.65;101726.38;2079802;28;47978;-59
2022/01/31 00:13:34;;;;;;;;;6.25;6.00;;;;;11.04;50.63;101720.16;2086909;28;47732;-60
2022/01/31 00:14:43;;;;;;;;;6.00;5.00;;;;;11.02;50.74;101708.69;2071845;28;47167;-60
2022/01/31 00:15:47;;;;;;;;;11.75;7.75;;;;;10.99;50.65;101706.94;2085345;28;47969;-58
2022/01/31 00:16:47;;;;;;;;;8.75;8.75;;;;;10.98;51.09;101702.50;2086196;28;48311;-57
2022/01/31 00:17:48;;;;;;;;;8.00;7.33;;;;;10.97;50.80;101705.19;2082011;28;47567;-58
2022/01/31 00:18:48;;;;;;;;;7.33;7.33;;;;;10.95;51.16;101699.00;2079360;28;48348;-59
2022/01/31 00:19:48;;;;;;;;;10.67;8.67;;;;;10.93;50.73;101700.81;2079441;28;47809;-58
2022/01/31 00:20:49;;;;;;;;;7.00;6.00;;;;;10.93;50.84;101706.13;2079874;28;48004;-60
2022/01/31 00:21:50;;;;;;;;;9.00;7.25;;;;;10.91;51.18;101693.69;2079163;28;47965;-60
2022/01/31 00:22:50;;;;;;;;;8.67;7.33;;;;;10.89;50.86;101687.53;2079336;28;47331;-60
2022/01/31 00:23:51;;;;;;;;;8.00;6.67;;;;;10.88;50.98;101699.03;2079418;28;47378;-58
2022/01/31 00:24:52;;;;;;;;;9.00;7.67;;;;;10.88;51.33;101700.81;2079598;28;47664;-60
2022/01/31 00:25:52;;;;;;;;;7.67;7.67;;;;;10.88;51.37;101698.16;2079543;28;46994;-58
2022/01/31 00:26:53;;;;;;;;;6.67;6.33;;;;;10.90;51.02;101685.75;2078089;28;47465;-56
2022/01/31 00:27:53;;;;;;;;;6.33;6.33;;;;;10.88;51.26;101680.44;2064088;28;47535;-59
2022/01/31 00:28:53;;;;;;;;;6.33;5.00;;;;;10.90;51.09;101686.63;2066836;28;47815;-60
2022/01/31 00:29:54;;;;;;;;;7.33;6.00;;;;;10.89;51.44;101691.94;2071275;28;47152;-60
2022/01/31 00:30:54;;;;;;;;;7.00;6.67;;;;;10.89;51.34;101682.22;2078347;28;47467;-59
2022/01/31 00:31:55;;;;;;;;;9.67;8.00;;;;;10.88;51.52;101677.78;2079376;28;47350;-57
2022/01/31 00:32:56;;;;;;;;;10.25;7.50;;;;;10.86;51.25;101676.94;2079364;28;47989;-59
2022/01/31 00:33:57;;;;;;;;;7.50;7.00;;;;;10.87;51.08;101670.72;2079590;28;47779;-60
2022/01/31 00:34:58;;;;;;;;;10.33;8.00;;;;;10.87;51.26;101672.50;2079518;28;47447;-59
2022/01/31 00:35:59;;;;;;;;;7.50;7.50;;;;;10.84;51.31;101665.44;2079863;28;48063;-60
2022/01/31 00:36:59;;;;;;;;;8.00;8.00;;;;;10.83;51.17;101670.78;2078666;28;47589;-60
2022/01/31 00:38:00;;;;;;;;;9.50;6.50;;;;;10.81;51.51;101665.47;2079662;28;46921;-59
2022/01/31 00:39:01;;;;;;;;;7.00;5.00;;;;;10.80;51.43;101669.03;2080072;28;45937;-55
2022/01/31 00:40:05;;;;;;;;;7.00;6.75;;;;;10.80;51.35;101669.03;2087791;28;47579;-59
2022/01/31 00:41:05;;;;;;;;;8.00;8.00;;;;;10.79;51.67;101674.31;2087912;28;47741;-60
2022/01/31 00:42:07;;;;;;;;;7.33;7.33;;;;;10.77;51.54;101677.00;2087652;28;47915;-59
2022/01/31 00:43:13;;;;;;;;;7.00;7.00;;;;;10.77;51.48;101678.75;2077355;28;47390;-57
2022/01/31 00:44:26;;;;;;;;;12.50;8.00;;;;;10.76;51.71;101680.53;2079262;28;47530;-61
2022/01/31 00:45:29;;;;;;;;;7.25;6.25;;;;;10.74;51.60;101677.03;2078733;28;47747;-60
2022/01/31 00:46:41;;;;;;;;;7.75;7.25;;;;;10.71;51.63;101682.34;2080497;28;47349;-59
2022/01/31 00:47:45;;;;;;;;;8.50;8.50;;;;;10.72;51.72;101689.44;2085306;28;47657;-60
2022/01/31 00:48:46;;;;;;;;;8.00;6.75;;;;;10.73;51.94;101679.69;2075813;28;47811;-59
2022/01/31 00:49:51;;;;;;;;;7.67;7.67;;;;;10.72;51.72;101684.13;2079304;28;48170;-60
2022/01/31 00:50:52;;;;;;;;;6.25;5.75;;;;;10.71;51.91;101690.31;2070420;28;48026;-58
2022/01/31 00:51:54;;;;;;;;;9.00;6.50;;;;;10.69;51.59;101684.16;2070716;28;47825;-60
2022/01/31 00:52:55;;;;;;;;;7.00;6.00;;;;;10.69;51.90;101677.97;2079259;28;47845;-58
2022/01/31 00:53:56;;;;;;;;;6.00;6.00;;;;;10.68;51.76;101678.84;2079456;28;47761;-58
2022/01/31 00:54:56;;;;;;;;;7.33;6.33;;;;;10.67;51.79;101674.41;2079226;28;47577;-59
2022/01/31 00:55:57;;;;;;;;;6.67;6.67;;;;;10.68;51.89;101684.16;2079061;28;47796;-61
2022/01/31 00:56:57;;;;;;;;;6.00;6.00;;;;;10.68;51.91;101684.16;2079504;28;47934;-61
2022/01/31 00:57:58;;;;;;;;;6.33;6.33;;;;;10.68;51.84;101681.50;2079033;28;47445;-60
2022/01/31 00:58:58;;;;;;;;;5.33;5.33;;;;;10.68;51.82;101676.19;2079478;28;47379;-60
2022/01/31 00:59:58;;;;;;;;;7.67;7.00;;;;;10.67;51.62;101669.09;2074868;28;47290;-57
2022/01/31 01:00:59;;;;;;;;;5.67;5.67;;;;;10.65;51.69;101669.13;2069287;28;47818;-59
2022/01/31 01:01:59;;;;;;;;;5.33;4.00;;;;;10.65;51.85;101665.56;2062389;28;47447;-58
2022/01/31 01:03:00;;;;;;;;;5.33;5.33;;;;;10.63;51.82;101660.28;2075802;28;47986;-59
2022/01/31 01:04:00;;;;;;;;;4.00;4.00;;;;;10.63;51.95;101664.72;2083012;28;47274;-59
2022/01/31 01:05:01;;;;;;;;;4.00;4.00;;;;;10.61;51.99;101641.72;2087731;28;47717;-57
2022/01/31 01:06:01;;;;;;;;;4.33;4.33;;;;;10.64;51.85;101631.97;2087368;28;47752;-59
2022/01/31 01:07:02;;;;;;;;;5.00;5.00;;;;;10.64;51.87;101624.00;2087894;28;47107;-60
2022/01/31 01:08:03;;;;;;;;;7.00;5.00;;;;;10.63;51.98;101625.78;2087288;28;47578;-57
2022/01/31 01:09:04;;;;;;;;;5.25;5.25;;;;;10.64;51.70;101626.66;2087916;28;47242;-59
2022/01/31 01:10:06;;;;;;;;;4.75;4.25;;;;;10.63;51.88;101633.72;2087246;28;47705;-58
2022/01/31 01:11:06;;;;;;;;;6.25;4.00;;;;;10.63;51.85;101631.09;2087437;28;47832;-59
2022/01/31 01:12:08;;;;;;;;;6.33;6.33;;;;;10.63;51.91;101632.84;2086615;28;47390;-60
2022/01/31 01:13:08;;;;;;;;;4.00;4.00;;;;;10.62;51.84;101634.63;2084422;28;48035;-57
2022/01/31 01:14:09;;;;;;;;;6.67;5.67;;;;;10.63;51.87;101633.72;2082568;28;47385;-60
2022/01/31 01:15:11;;;;;;;;;6.00;4.33;;;;;10.61;51.91;101640.84;2079325;28;47918;-59
2022/01/31 01:16:11;;;;;;;;;5.75;4.50;;;;;10.60;51.75;101634.66;2078793;28;47030;-59
2022/01/31 01:17:11;;;;;;;;;6.00;4.00;;;;;10.60;52.01;101636.41;2061441;28;47612;-57
2022/01/31 01:18:12;;;;;;;;;7.67;6.00;;;;;10.58;51.98;101625.81;2061662;28;47082;-58
2022/01/31 01:19:13;;;;;;;;;7.33;5.67;;;;;10.56;52.25;101616.13;2076203;28;48110;-59
2022/01/31 01:20:15;;;;;;;;;5.00;3.00;;;;;10.56;52.24;101610.81;2079204;28;47755;-60
2022/01/31 01:21:15;;;;;;;;;4.25;4.25;;;;;10.54;51.86;101616.13;2079106;28;47899;-58
2022/01/31 01:22:16;;;;;;;;;4.00;3.67;;;;;10.54;52.21;101613.47;2079004;28;48415;-58
2022/01/31 01:23:16;;;;;;;;;5.00;5.00;;;;;10.52;52.15;101615.22;2080078;28;48097;-59
2022/01/31 01:24:16;;;;;;;;;4.67;4.67;;;;;10.52;52.06;101615.22;2080946;28;46411;-61
2022/01/31 01:25:17;;;;;;;;;5.00;5.00;;;;;10.51;52.27;101624.09;2080251;28;47830;-57
2022/01/31 01:26:19;;;;;;;;;4.00;4.00;;;;;10.51;51.90;101612.59;2086656;28;47011;-58
2022/01/31 01:27:20;;;;;;;;;4.50;4.50;;;;;10.51;52.59;101609.94;2082031;28;47683;-58
2022/01/31 01:28:22;;;;;;;;;5.50;4.00;;;;;10.49;52.49;101598.47;2080527;28;47539;-59
2022/01/31 01:29:23;;;;;;;;;5.75;5.00;;;;;10.48;52.55;101602.88;2080514;28;47593;-61
2022/01/31 01:30:24;;;;;;;;;5.00;3.00;;;;;10.48;52.57;101594.03;2083791;28;48040;-58
2022/01/31 01:31:24;;;;;;;;;4.33;3.00;;;;;10.48;52.57;101583.44;2088874;28;46872;-59
2022/01/31 01:32:27;;;;;;;;;4.00;3.00;;;;;10.48;52.72;101586.09;2080072;28;47886;-60
2022/01/31 01:33:28;;;;;;;;;4.00;4.00;;;;;10.47;52.63;101568.41;2076076;28;48339;-56
2022/01/31 01:34:32;;;;;;;;;3.00;3.00;;;;;10.48;52.57;101578.13;2089078;28;47340;-59
2022/01/31 01:35:34;;;;;;;;;4.50;4.50;;;;;10.48;52.93;101567.50;2079089;28;47992;-59
2022/01/31 01:36:35;;;;;;;;;8.00;5.75;;;;;10.48;52.58;101564.84;2077426;28;47124;-58
2022/01/31 01:37:35;;;;;;;;;2.33;2.33;;;;;10.48;52.69;101576.34;2063071;28;47994;-59
2022/01/31 01:38:36;;;;;;;;;4.00;2.00;;;;;10.48;52.79;101549.81;2076810;28;47775;-59
2022/01/31 01:39:37;;;;;;;;;3.50;3.00;;;;;10.49;52.69;101540.94;2079564;28;48199;-60
2022/01/31 01:40:40;;;;;;;;;4.00;4.00;;;;;10.49;52.86;101546.25;2079810;28;47209;-59
2022/01/31 01:41:43;;;;;;;;;3.75;3.75;;;;;10.49;52.96;101546.25;2073970;28;47933;-58
2022/01/31 01:42:43;;;;;;;;;4.00;3.00;;;;;10.48;53.11;101543.63;2063341;28;47715;-58
2022/01/31 01:43:44;;;;;;;;;5.00;4.67;;;;;10.48;53.09;101552.47;2062962;28;47452;-59
2022/01/31 01:44:50;;;;;;;;;3.33;3.33;;;;;10.50;53.06;101545.38;2071450;28;48209;-60
2022/01/31 01:45:53;;;;;;;;;6.00;6.00;;;;;10.50;53.08;101539.19;2071156;28;48197;-60
2022/01/31 01:46:54;;;;;;;;;5.00;2.75;;;;;10.49;52.98;101535.66;2071297;28;48588;-58
2022/01/31 01:47:54;;;;;;;;;3.50;3.00;;;;;10.50;53.30;101540.06;2071091;28;47881;-57
2022/01/31 01:48:55;;;;;;;;;3.00;3.00;;;;;10.51;53.11;101533.84;2071521;28;47269;-59
2022/01/31 01:49:55;;;;;;;;;3.00;3.00;;;;;10.51;53.26;101531.19;2071159;28;47785;-60
2022/01/31 01:50:58;;;;;;;;;3.00;3.00;;;;;10.50;53.01;101540.06;2072935;28;47832;-58
2022/01/31 01:51:58;;;;;;;;;7.00;3.00;;;;;10.49;53.09;101538.28;2079480;28;47872;-58
2022/01/31 01:53:00;;;;;;;;;4.67;4.67;;;;;10.48;53.35;101544.50;2079521;28;47160;-59
2022/01/31 01:54:01;;;;;;;;;5.00;5.00;;;;;10.47;53.37;101544.53;2079273;28;47868;-57
2022/01/31 01:55:02;;;;;;;;;4.75;2.75;;;;;10.45;53.39;101543.66;2064706;28;47564;-60
2022/01/31 01:56:03;;;;;;;;;4.67;3.33;;;;;10.45;53.44;101549.84;2060085;28;47345;-57
2022/01/31 01:57:04;;;;;;;;;4.33;3.67;;;;;10.45;53.47;101543.66;2071522;28;47754;-60
2022/01/31 01:58:12;;;;;;;;;4.00;4.00;;;;;10.44;53.71;101540.13;2071302;28;48321;-60
2022/01/31 01:59:13;;;;;;;;;3.75;3.75;;;;;10.45;53.49;101544.53;2071503;28;47837;-58
2022/01/31 02:00:18;;;;;;;;;4.67;4.00;;;;;10.46;53.54;101550.72;2072652;28;48050;-60
2022/01/31 02:01:19;;;;;;;;;3.75;3.25;;;;;10.46;53.75;101543.63;2073730;28;47616;-59
2022/01/31 02:02:19;;;;;;;;;2.00;2.00;;;;;10.47;53.68;101545.41;2071091;28;47487;-59
2022/01/31 02:03:21;;;;;;;;;6.67;5.33;;;;;10.47;53.75;101545.41;2071249;28;47223;-60
2022/01/31 02:04:21;;;;;;;;;2.50;2.50;;;;;10.47;53.84;101553.34;2073733;28;47710;-60
2022/01/31 02:05:22;;;;;;;;;5.33;4.00;;;;;10.49;53.90;101558.66;2071478;28;48031;-59
2022/01/31 02:06:22;;;;;;;;;5.00;3.75;;;;;10.49;54.05;101548.91;2070889;28;47315;-59
2022/01/31 02:07:24;;;;;;;;;5.00;3.00;;;;;10.49;53.93;101546.25;2078521;28;47588;-60
2022/01/31 02:08:25;;;;;;;;;5.25;5.00;;;;;10.51;53.98;101540.94;2078769;28;46035;-60
2022/01/31 02:09:29;;;;;;;;;3.75;3.75;;;;;10.51;53.96;101544.47;2080367;28;47869;-59
2022/01/31 02:10:29;;;;;;;;;5.75;4.75;;;;;10.52;54.22;101540.03;2080213;28;47769;-56
2022/01/31 02:11:30;;;;;;;;;9.33;6.33;;;;;10.52;54.01;101545.34;2080378;28;48172;-59
2022/01/31 02:12:41;;;;;;;;;3.00;3.00;;;;;10.53;54.25;101528.53;2069866;28;47447;-58
2022/01/31 02:13:41;;;;;;;;;6.00;4.00;;;;;10.53;54.20;101536.50;2065368;28;47754;-58
2022/01/31 02:14:41;;;;;;;;;4.33;4.00;;;;;10.54;54.54;101532.94;2054405;28;48090;-58
2022/01/31 02:15:49;;;;;;;;;4.67;4.33;;;;;10.54;53.98;101533.84;2054558;28;47595;-58
2022/01/31 02:16:51;;;;;;;;;4.25;2.25;;;;;10.55;54.17;101534.72;2080097;28;47695;-59
2022/01/31 02:17:51;;;;;;;;;3.75;3.75;;;;;10.54;54.41;101517.00;2072147;28;47825;-60
2022/01/31 02:18:53;;;;;;;;;3.00;3.00;;;;;10.54;54.72;101520.59;2080246;28;47580;-58
2022/01/31 02:19:55;;;;;;;;;4.25;3.00;;;;;10.55;54.71;101516.16;2080681;28;47914;-59
2022/01/31 02:20:55;;;;;;;;;4.00;4.00;;;;;10.55;54.86;101516.16;2079744;28;48206;-58
2022/01/31 02:21:56;;;;;;;;;4.00;4.00;;;;;10.55;54.63;101513.50;2080454;28;47544;-59
2022/01/31 02:22:57;;;;;;;;;3.00;3.00;;;;;10.55;54.62;101506.41;2080333;28;47429;-60
2022/01/31 02:23:58;;;;;;;;;7.25;4.75;;;;;10.54;54.70;101512.63;2080173;28;48175;-57
2022/01/31 02:24:59;;;;;;;;;2.67;2.67;;;;;10.53;54.77;101505.53;2080398;28;47551;-58
2022/01/31 02:26:05;;;;;;;;;3.00;3.00;;;;;10.55;54.82;101517.03;2080057;28;47580;-58
2022/01/31 02:27:05;;;;;;;;;10.75;4.75;;;;;10.53;54.85;101499.34;2079839;28;47175;-58
2022/01/31 02:28:06;;;;;;;;;4.33;3.00;;;;;10.54;55.19;101503.75;2078578;28;47986;-58
2022/01/31 02:29:08;;;;;;;;;3.33;3.00;;;;;10.52;55.32;101501.09;2071886;28;47754;-59
2022/01/31 02:30:12;;;;;;;;;6.75;2.25;;;;;10.51;55.16;101502.00;2077348;28;47707;-58
2022/01/31 02:31:13;;;;;;;;;3.75;3.75;;;;;10.51;55.29;101490.50;2080183;28;47240;-59
2022/01/31 02:32:14;;;;;;;;;2.00;2.00;;;;;10.52;55.60;101494.91;2080203;28;47296;-55
2022/01/31 02:33:15;;;;;;;;;5.25;4.00;;;;;10.51;55.55;101485.19;2081989;28;48209;-59
2022/01/31 02:34:16;;;;;;;;;3.00;3.00;;;;;10.51;55.00;101479.91;2085497;28;47793;-57
2022/01/31 02:35:17;;;;;;;;;4.25;4.00;;;;;10.50;55.43;101484.31;2088476;28;48382;-58
2022/01/31 02:36:18;;;;;;;;;3.67;3.67;;;;;10.51;55.66;101477.25;2086412;28;47795;-57
2022/01/31 02:37:20;;;;;;;;;3.25;3.25;;;;;10.50;55.84;101468.41;2055552;28;47941;-56
2022/01/31 02:38:20;;;;;;;;;4.50;4.50;;;;;10.49;55.72;101466.66;2054859;28;47349;-58
2022/01/31 02:39:21;;;;;;;;;4.67;3.00;;;;;10.49;56.00;101471.97;2086724;28;48305;-60
2022/01/31 02:40:21;;;;;;;;;3.00;3.00;;;;;10.49;55.85;101461.34;2088465;28;46791;-57
2022/01/31 02:41:21;;;;;;;;;8.33;5.00;;;;;10.49;56.01;101476.38;2088211;28;46944;-58
2022/01/31 02:42:23;;;;;;;;;3.00;2.00;;;;;10.49;56.04;101476.38;2088151;28;47502;-59
2022/01/31 02:43:26;;;;;;;;;4.25;3.75;;;;;10.49;55.99;101473.72;2088658;28;47631;-57
2022/01/31 02:44:27;;;;;;;;;3.00;3.00;;;;;10.50;56.50;101473.72;2085521;28;47775;-59
2022/01/31 02:45:27;;;;;;;;;2.67;1.33;;;;;10.51;56.07;101483.44;2080123;28;47823;-57
2022/01/31 02:46:28;;;;;;;;;1.00;1.00;;;;;10.51;56.18;101462.19;2080092;28;47774;-60
2022/01/31 02:47:29;;;;;;;;;4.00;3.00;;;;;10.53;56.32;101476.31;2063197;28;47642;-55
2022/01/31 02:48:33;;;;;;;;;4.25;4.00;;;;;10.54;56.04;101462.19;2071155;28;47572;-57
2022/01/31 02:49:36;;;;;;;;;3.50;2.25;;;;;10.53;55.99;101455.09;2080062;28;47565;-59
2022/01/31 02:50:39;;;;;;;;;2.50;2.50;;;;;10.52;56.48;101450.69;2080044;28;47551;-58
2022/01/31 02:51:45;;;;;;;;;5.75;4.50;;;;;10.53;56.51;101446.25;2080083;28;47764;-58
2022/01/31 02:52:49;;;;;;;;;3.25;2.50;;;;;10.53;56.18;101440.94;2079643;28;47422;-57
2022/01/31 02:53:49;;;;;;;;;3.50;3.00;;;;;10.52;56.43;101448.03;2079982;28;47661;-61
2022/01/31 02:54:50;;;;;;;;;3.33;3.00;;;;;10.53;56.62;101455.09;2079927;28;47866;-58
2022/01/31 02:55:52;;;;;;;;;4.00;3.33;;;;;10.53;56.80;101457.75;2082321;28;47476;-60
2022/01/31 02:56:53;;;;;;;;;6.25;4.00;;;;;10.55;56.32;101449.81;2088351;28;48448;-60
2022/01/31 02:57:54;;;;;;;;;4.67;3.00;;;;;10.54;56.59;101442.72;2087774;28;47883;-59
2022/01/31 02:58:54;;;;;;;;;3.00;3.00;;;;;10.54;56.87;101448.00;2088300;28;47852;-58
2022/01/31 02:59:55;;;;;;;;;3.67;3.67;;;;;10.54;56.73;101446.28;2084018;28;47475;-59
2022/01/31 03:00:57;;;;;;;;;4.67;3.00;;;;;10.55;56.91;101452.47;2080481;28;47957;-60
2022/01/31 03:01:58;;;;;;;;;6.75;3.00;;;;;10.54;57.39;101448.91;2088185;28;47855;-60
2022/01/31 03:02:58;;;;;;;;;2.50;2.50;;;;;10.54;56.92;101445.34;2088335;28;46940;-59
2022/01/31 03:03:59;;;;;;;;;3.00;3.00;;;;;10.56;56.92;101439.16;2088471;28;47557;-59
2022/01/31 03:04:59;;;;;;;;;4.00;2.00;;;;;10.56;56.86;101441.81;2088365;28;47558;-61
2022/01/31 03:06:00;;;;;;;;;3.33;3.00;;;;;10.57;56.91;101429.44;2088099;28;47765;-59
2022/01/31 03:07:00;;;;;;;;;2.67;2.67;;;;;10.57;57.25;101432.09;2088194;28;47436;-59
2022/01/31 03:08:01;;;;;;;;;5.00;4.00;;;;;10.58;56.99;101415.25;2079506;28;47665;-56
2022/01/31 03:09:02;;;;;;;;;1.75;1.75;;;;;10.58;57.37;101413.47;2079406;28;48344;-57
2022/01/31 03:10:03;;;;;;;;;3.67;2.33;;;;;10.57;57.63;101414.38;2088334;28;48420;-57
2022/01/31 03:11:03;;;;;;;;;3.00;1.33;;;;;10.58;57.04;101415.25;2079226;28;47759;-60
2022/01/31 03:12:04;;;;;;;;;2.00;2.00;;;;;10.55;57.61;101413.53;2054068;28;47679;-60
2022/01/31 03:13:06;;;;;;;;;2.25;2.25;;;;;10.56;57.40;101414.41;2057829;28;48694;-57
2022/01/31 03:14:06;;;;;;;;;1.00;1.00;;;;;10.57;57.75;101418.81;2075776;28;47969;-59
2022/01/31 03:15:07;;;;;;;;;2.33;2.00;;;;;10.58;57.65;101420.56;2073887;28;47722;-56
2022/01/31 03:16:07;;;;;;;;;2.67;2.00;;;;;10.58;57.71;101407.28;2076527;28;47723;-57
2022/01/31 03:17:09;;;;;;;;;2.33;2.00;;;;;10.59;58.01;101407.28;2079810;28;47476;-59
2022/01/31 03:18:09;;;;;;;;;2.75;2.75;;;;;10.59;57.85;101420.56;2069176;28;47649;-60
2022/01/31 03:19:10;;;;;;;;;4.00;2.67;;;;;10.59;58.04;101415.25;2071113;28;47148;-61
2022/01/31 03:20:11;;;;;;;;;2.00;2.00;;;;;10.60;58.46;101416.13;2075789;28;48016;-60
2022/01/31 03:21:12;;;;;;;;;3.33;1.00;;;;;10.59;58.13;101407.28;2081966;28;47659;-58
2022/01/31 03:22:12;;;;;;;;;6.50;3.25;;;;;10.61;58.32;101412.56;2079485;28;47571;-56
2022/01/31 03:23:13;;;;;;;;;1.00;1.00;;;;;10.60;58.69;101403.72;2074210;28;47214;-58
2022/01/31 03:24:14;;;;;;;;;4.00;2.50;;;;;10.61;58.60;101401.94;2077346;28;47723;-59
2022/01/31 03:25:15;;;;;;;;;1.00;1.00;;;;;10.60;58.45;101403.72;2079933;28;46117;-60
2022/01/31 03:26:17;;;;;;;;;2.25;2.25;;;;;10.60;58.38;101403.72;2084081;28;48040;-59
2022/01/31 03:27:17;;;;;;;;;1.75;1.75;;;;;10.61;58.65;101404.59;2079671;28;47664;-58
2022/01/31 03:28:17;;;;;;;;;3.67;2.33;;;;;10.62;59.33;101401.06;2079538;28;47744;-58
2022/01/31 03:29:18;;;;;;;;;4.33;2.00;;;;;10.63;58.88;101408.13;2085409;28;47592;-60
2022/01/31 03:30:22;;;;;;;;;1.00;1.00;;;;;10.61;58.95;101408.13;2085819;28;47634;-61
2022/01/31 03:31:23;;;;;;;;;2.75;2.75;;;;;10.62;58.92;101411.66;2079682;28;48319;-60
2022/01/31 03:32:23;;;;;;;;;2.00;2.00;;;;;10.60;58.99;101411.69;2074532;28;47943;-59
2022/01/31 03:33:24;;;;;;;;;2.00;0.67;;;;;10.61;59.28;101420.53;2077493;28;47599;-60
2022/01/31 03:34:25;;;;;;;;;2.00;1.00;;;;;10.61;59.00;101405.47;2086494;28;47712;-56
2022/01/31 03:35:27;;;;;;;;;3.00;3.00;;;;;10.61;59.09;101407.25;2083622;28;48069;-58
2022/01/31 03:36:27;;;;;;;;;3.25;2.00;;;;;10.60;59.19;101406.38;2061802;28;47871;-59
2022/01/31 03:37:28;;;;;;;;;1.67;1.67;;;;;10.61;59.22;101405.47;2068231;28;47901;-59
2022/01/31 03:38:28;;;;;;;;;4.00;4.00;;;;;10.62;59.27;101406.34;2085206;28;47375;-58
2022/01/31 03:39:29;;;;;;;;;2.67;2.00;;;;;10.63;59.42;101401.94;2075674;28;48175;-61
2022/01/31 03:40:29;;;;;;;;;3.00;2.00;;;;;10.62;59.12;101398.41;2076047;28;47363;-62
2022/01/31 03:41:30;;;;;;;;;2.00;2.00;;;;;10.61;59.33;101391.34;2079551;28;47156;-59
2022/01/31 03:42:30;;;;;;;;;2.00;1.00;;;;;10.62;59.46;101387.78;2087125;28;48025;-61
2022/01/31 03:43:31;;;;;;;;;1.33;0.67;;;;;10.62;59.26;101377.16;2083902;28;45500;-59
2022/01/31 03:44:31;;;;;;;;;1.33;1.33;;;;;10.63;59.58;101372.72;2079469;28;47464;-60
2022/01/31 03:45:34;;;;;;;;;6.00;3.67;;;;;10.63;59.64;101372.72;2080535;28;47933;-58
2022/01/31 03:46:35;;;;;;;;;5.00;3.00;;;;;10.63;60.07;101364.78;2079722;28;47931;-60
2022/01/31 03:47:43;;;;;;;;;3.00;2.00;;;;;10.63;60.19;101356.81;2082767;28;47831;-59
2022/01/31 03:48:45;;;;;;;;;2.00;2.00;;;;;10.62;60.35;101363.88;2079449;28;48104;-60
2022/01/31 03:49:46;;;;;;;;;2.00;2.00;;;;;10.61;60.42;101381.59;2070832;28;47575;-60
2022/01/31 03:50:47;;;;;;;;;2.33;2.00;;;;;10.62;60.46;101377.16;2067622;28;47736;-60
2022/01/31 03:51:47;;;;;;;;;3.00;0.67;;;;;10.63;60.78;101372.72;2081506;28;47467;-60
2022/01/31 03:52:48;;;;;;;;;2.33;2.33;;;;;10.64;60.78;101359.44;2080266;28;48089;-60
2022/01/31 03:53:49;;;;;;;;;2.00;2.00;;;;;10.66;60.87;101356.75;2084469;28;47678;-59
2022/01/31 03:54:49;;;;;;;;;1.00;1.00;;;;;10.65;60.87;101365.63;2079396;28;47443;-60
2022/01/31 03:55:50;;;;;;;;;1.00;1.00;;;;;10.66;60.44;101362.06;2079298;28;48030;-59
2022/01/31 03:56:50;;;;;;;;;2.00;2.00;;;;;10.67;61.63;101358.50;2079120;28;48063;-59
2022/01/31 03:57:50;;;;;;;;;1.00;1.00;;;;;10.67;61.49;101356.78;2070710;28;47836;-59
2022/01/31 03:58:51;;;;;;;;;1.00;1.00;;;;;10.65;61.70;101374.47;2075528;28;47904;-60
2022/01/31 03:59:51;;;;;;;;;1.00;1.00;;;;;10.66;61.77;101367.38;2082771;28;47593;-60
2022/01/31 04:00:52;;;;;;;;;2.00;1.67;;;;;10.67;61.62;101379.75;2078741;28;48418;-60
2022/01/31 04:01:52;;;;;;;;;3.00;1.67;;;;;10.65;62.11;101393.03;2079702;28;48579;-58
2022/01/31 04:02:53;;;;;;;;;1.00;1.00;;;;;10.66;61.65;101391.28;2084012;28;47782;-57
2022/01/31 04:03:53;;;;;;;;;3.00;1.33;;;;;10.65;61.61;101387.75;2080886;28;47857;-58
2022/01/31 04:04:53;;;;;;;;;0.33;0.33;;;;;10.67;62.09;101385.06;2071649;28;47477;-59
2022/01/31 04:05:54;;;;;;;;;3.00;3.00;;;;;10.67;62.30;101387.72;2078356;28;47858;-59
2022/01/31 04:06:55;;;;;;;;;1.00;1.00;;;;;10.67;62.72;101379.75;2082866;28;47846;-59
2022/01/31 04:07:55;;;;;;;;;1.00;1.00;;;;;10.66;62.10;101383.31;2079291;28;48110;-60
2022/01/31 04:08:56;;;;;;;;;2.67;2.67;;;;;10.66;62.49;101383.31;2087894;28;47990;-57
2022/01/31 04:09:56;;;;;;;;;3.00;3.00;;;;;10.66;62.40;101380.66;2084212;28;47435;-59
2022/01/31 04:10:57;;;;;;;;;1.33;0.33;;;;;10.66;62.42;101381.53;2079554;28;47129;-58
2022/01/31 04:11:57;;;;;;;;;1.67;1.67;;;;;10.67;62.17;101388.63;2079105;28;47344;-60
2022/01/31 04:12:58;;;;;;;;;1.00;1.00;;;;;10.69;62.28;101397.44;2083618;28;47034;-59
2022/01/31 04:13:58;;;;;;;;;2.00;2.00;;;;;10.70;62.69;101393.91;2079215;28;47851;-57
2022/01/31 04:14:58;;;;;;;;;1.00;1.00;;;;;10.71;62.39;101392.13;2084868;28;47065;-58
2022/01/31 04:15:59;;;;;;;;;1.00;1.00;;;;;10.71;62.41;101397.44;2087424;28;47677;-58
2022/01/31 04:17:00;;;;;;;;;2.33;1.00;;;;;10.71;62.27;101397.44;2079399;28;46625;-60
2022/01/31 04:18:01;;;;;;;;;2.00;2.00;;;;;10.70;62.77;101399.19;2079187;28;47663;-59
2022/01/31 04:19:02;;;;;;;;;2.00;2.00;;;;;10.71;62.79;101384.16;2083869;28;48351;-61
2022/01/31 04:20:03;;;;;;;;;2.00;2.00;;;;;10.70;62.58;101388.59;2080193;28;47710;-59
2022/01/31 04:21:03;;;;;;;;;1.00;1.00;;;;;10.70;62.41;101385.94;2075083;28;47559;-59
2022/01/31 04:22:09;;;;;;;;;2.33;2.00;;;;;10.72;62.73;101393.88;2084274;28;47172;-62
2022/01/31 04:23:12;;;;;;;;;0.75;0.75;;;;;10.72;62.42;101394.75;2079012;28;47345;-55
2022/01/31 04:24:19;;;;;;;;;2.00;2.00;;;;;10.72;62.92;101402.72;2079284;28;48155;-59
2022/01/31 04:25:29;;;;;;;;;4.50;3.00;;;;;10.72;62.46;101394.75;2082995;28;48086;-57
2022/01/31 04:26:33;;;;;;;;;1.25;1.25;;;;;10.72;62.86;101389.44;2080471;28;48206;-61
2022/01/31 04:27:44;;;;;;;;;1.00;1.00;;;;;10.73;62.78;101404.47;2070431;28;47308;-58
2022/01/31 04:29:03;;;;;;;;;1.75;1.75;;;;;10.74;62.96;101397.38;2077117;28;47994;-59
2022/01/31 04:30:06;;;;;;;;;1.00;1.00;;;;;10.76;62.45;101411.50;2076991;28;47357;-59
2022/01/31 04:32:22;;;;;;;;;1.75;1.75;;;;;10.78;62.58;101396.44;2072530;28;46995;-58
2022/01/31 04:33:24;;;;;;;;;3.00;2.00;;;;;10.79;62.81;101399.06;2093239;28;48298;-59
2022/01/31 04:34:26;;;;;;;;;2.00;1.00;;;;;10.79;62.67;101396.41;2095826;28;47702;-58
2022/01/31 04:35:26;;;;;;;;;1.75;1.00;;;;;10.79;62.93;101390.22;2096020;28;48049;-59
2022/01/31 04:36:27;;;;;;;;;1.00;1.00;;;;;10.81;62.51;101396.44;2081341;28;47838;-60
2022/01/31 04:37:27;;;;;;;;;2.00;2.00;;;;;10.82;62.57;101406.16;2086513;28;48022;-60
2022/01/31 04:38:27;;;;;;;;;2.00;2.00;;;;;10.84;62.84;101409.66;2087909;28;47989;-58
2022/01/31 04:39:29;;;;;;;;;1.00;1.00;;;;;10.85;62.65;101406.09;2087339;28;47635;-60
2022/01/31 04:40:30;;;;;;;;;1.50;1.50;;;;;10.85;62.98;101391.06;2086695;28;48007;-59
2022/01/31 04:41:30;;;;;;;;;3.00;1.00;;;;;10.85;62.76;101399.00;2079375;28;47529;-60
2022/01/31 04:42:31;;;;;;;;;1.67;1.00;;;;;10.86;62.61;101394.59;2087491;28;47415;-58
2022/01/31 04:43:32;;;;;;;;;1.33;1.33;;;;;10.87;62.75;101396.34;2095824;28;47315;-60
2022/01/31 04:44:34;;;;;;;;;1.25;0.00;;;;;10.86;62.67;101395.47;2095838;28;47466;-57
2022/01/31 04:45:34;;;;;;;;;1.25;1.25;;;;;10.86;62.43;101392.81;2092893;28;47044;-61
2022/01/31 04:46:35;;;;;;;;;1.00;1.00;;;;;10.87;62.88;101391.91;2087868;28;47247;-60
2022/01/31 04:47:35;;;;;;;;;2.00;1.00;;;;;10.88;62.69;101380.38;2087736;28;47394;-60